Time;durP1;ratioP1;P1;durP2;ratioP2;P2;SDS_P1;SDS_P2;PMS_P1;PMS_P2;Temp;Humidity;BMP_temperature;BMP_pressure;BME280_temperature;BME280_humidity;BME280_pressure;Samples;Min_cycle;Max_cycle;Signal;HPM_P1;HPM_P2
2021/12/10 00:01:10;;;;;;;13.20;6.20;;;3.40;99.90;;;;;;4952127;29;20031;-85
2021/12/10 00:03:47;;;;;;;14.38;7.03;;;3.40;99.90;;;;;;4951328;29;20474;-84
2021/12/10 00:06:21;;;;;;;19.50;8.20;;;3.40;99.90;;;;;;4951570;29;20035;-83
2021/12/10 00:08:53;;;;;;;13.85;7.45;;;3.40;99.90;;;;;;4935448;29;20039;-86
2021/12/10 00:11:26;;;;;;;14.50;7.32;;;3.40;99.90;;;;;;4951418;29;20476;-85
2021/12/10 00:13:52;;;;;;;15.05;8.35;;;3.30;99.90;;;;;;4951267;29;20039;-84
2021/12/10 00:16:19;;;;;;;15.73;7.50;;;3.20;99.90;;;;;;4951156;29;20038;-85
2021/12/10 00:18:52;;;;;;;15.18;7.38;;;3.20;99.90;;;;;;4951080;29;20047;-84
2021/12/10 00:21:19;;;;;;;19.23;7.50;;;3.10;99.90;;;;;;4951187;29;20037;-85
2021/12/10 00:23:49;;;;;;;12.77;7.60;;;3.10;99.90;;;;;;4951219;29;20035;-85
2021/12/10 00:26:15;;;;;;;17.20;8.30;;;3.10;99.90;;;;;;4951008;29;20031;-84
2021/12/10 00:28:41;;;;;;;11.77;6.05;;;3.10;99.90;;;;;;4950804;29;20042;-85
2021/12/10 00:34:19;;;;;;;14.30;6.15;;;3.00;99.90;;;;;;4950834;29;20035;-85
2021/12/10 00:36:46;;;;;;;17.17;8.02;;;3.00;99.90;;;;;;4951174;29;20031;-84
2021/12/10 00:39:21;;;;;;;14.77;6.75;;;2.90;99.90;;;;;;4950664;29;20043;-85
2021/12/10 00:41:47;;;;;;;15.48;6.55;;;2.90;99.90;;;;;;4966725;29;20031;-84
2021/12/10 00:44:13;;;;;;;12.85;6.82;;;2.90;99.90;;;;;;4950684;29;20043;-84
2021/12/10 00:46:40;;;;;;;13.75;6.20;;;2.80;99.90;;;;;;4966625;29;20061;-85
2021/12/10 00:49:07;;;;;;;10.27;5.28;;;2.80;99.90;;;;;;4950631;29;20123;-85
2021/12/10 00:51:33;;;;;;;11.45;5.28;;;2.70;99.90;;;;;;4950704;29;20038;-85
2021/12/10 00:53:59;;;;;;;15.52;6.65;;;2.70;99.90;;;;;;4950678;29;20031;-85
2021/12/10 00:56:24;;;;;;;13.70;7.10;;;2.70;99.90;;;;;;4950337;29;20062;-85
2021/12/10 00:58:50;;;;;;;12.13;4.95;;;2.70;99.90;;;;;;4950318;29;20098;-85
2021/12/10 01:01:24;;;;;;;11.75;4.97;;;2.60;99.90;;;;;;4950521;29;20038;-84
2021/12/10 01:04:01;;;;;;;9.75;5.53;;;2.60;99.90;;;;;;4966532;29;20528;-84
2021/12/10 01:06:28;;;;;;;15.75;5.85;;;2.70;99.90;;;;;;4950486;29;20027;-84
2021/12/10 01:08:58;;;;;;;20.08;6.97;;;2.60;99.90;;;;;;4950330;29;20035;-85
2021/12/10 01:11:37;;;;;;;9.68;4.55;;;2.60;99.90;;;;;;4966089;29;20318;-84
2021/12/10 01:14:15;;;;;;;10.32;4.57;;;2.60;99.90;;;;;;4949945;29;20054;-84
2021/12/10 01:25:37;;;;;;;10.52;4.22;;;2.60;99.90;;;;;;4892165;29;20056;-84
2021/12/10 01:30:52;;;;;;;9.32;4.40;;;2.50;99.90;;;;;;4942410;29;20071;-84
2021/12/10 01:33:18;;;;;;;11.73;4.93;;;2.50;99.90;;;;;;4927215;29;20055;-84
2021/12/10 01:35:49;;;;;;;10.43;4.15;;;2.50;99.90;;;;;;4911046;29;20036;-84
2021/12/10 01:38:16;;;;;;;9.02;3.83;;;2.50;99.90;;;;;;4918524;29;20146;-84
2021/12/10 01:40:47;;;;;;;11.32;4.32;;;2.50;99.90;;;;;;4892366;29;20047;-84
2021/12/10 01:43:22;;;;;;;10.55;4.55;;;2.40;99.90;;;;;;4892407;29;20052;-83
2021/12/10 01:46:00;;;;;;;8.82;3.53;;;2.40;99.90;;;;;;4907842;29;20077;-84
2021/12/10 01:48:31;;;;;;;8.82;3.70;;;2.50;99.90;;;;;;4907974;29;20048;-84
2021/12/10 01:50:59;;;;;;;11.10;5.70;;;2.50;99.90;;;;;;4907851;29;20028;-84
2021/12/10 01:53:27;;;;;;;10.45;4.82;;;2.40;99.90;;;;;;4923851;29;20047;-84
2021/12/10 01:55:56;;;;;;;10.88;3.95;;;2.40;99.90;;;;;;4907648;29;20056;-84
2021/12/10 01:58:24;;;;;;;6.20;3.40;;;2.40;99.90;;;;;;4907730;29;20055;-84
2021/12/10 02:00:57;;;;;;;7.15;3.50;;;2.30;99.90;;;;;;4892190;29;20048;-84
2021/12/10 02:03:23;;;;;;;10.25;3.90;;;2.30;99.90;;;;;;4907858;29;20040;-83
2021/12/10 02:05:49;;;;;;;8.43;4.00;;;2.30;99.90;;;;;;4923501;29;20100;-84
2021/12/10 02:08:15;;;;;;;9.48;5.13;;;2.30;99.90;;;;;;4935604;29;20095;-84
2021/12/10 02:10:40;;;;;;;10.75;3.95;;;2.40;99.90;;;;;;4934226;29;20094;-84
2021/12/10 02:13:06;;;;;;;10.70;4.07;;;2.30;99.90;;;;;;4965869;29;20039;-84
2021/12/10 02:15:32;;;;;;;6.68;3.53;;;2.30;99.90;;;;;;4949844;29;20036;-84
2021/12/10 02:17:59;;;;;;;8.02;3.00;;;2.30;99.90;;;;;;4965778;29;20050;-84
2021/12/10 02:20:52;;;;;;;6.00;2.35;;;2.30;99.90;;;;;;4949954;29;20070;-83
2021/12/10 02:23:19;;;;;;;8.10;2.58;;;2.20;99.90;;;;;;4899504;29;20481;-84
2021/12/10 02:25:45;;;;;;;7.38;2.53;;;2.20;99.90;;;;;;4933886;29;20040;-84
2021/12/10 02:28:31;;;;;;;8.40;3.05;;;2.20;99.90;;;;;;4935941;29;20036;-84
2021/12/10 02:30:57;;;;;;;6.38;3.08;;;2.20;99.90;;;;;;4860691;29;20077;-88
2021/12/10 02:33:25;;;;;;;9.80;3.28;;;2.20;99.90;;;;;;4891952;29;20049;-84
2021/12/10 02:35:51;;;;;;;6.10;3.00;;;2.20;99.90;;;;;;4891749;29;20045;-84
2021/12/10 02:38:18;;;;;;;14.07;3.13;;;2.20;99.90;;;;;;4876302;29;20516;-84
2021/12/10 02:40:46;;;;;;;7.15;2.95;;;2.20;99.90;;;;;;4891842;29;20033;-84
2021/12/10 02:43:13;;;;;;;11.07;2.80;;;2.20;99.90;;;;;;4891709;29;20049;-84
2021/12/10 02:45:42;;;;;;;5.50;2.80;;;2.10;99.90;;;;;;4891632;29;20041;-84
2021/12/10 02:48:08;;;;;;;6.95;3.13;;;2.10;99.90;;;;;;4907423;29;20136;-84
2021/12/10 02:50:36;;;;;;;7.20;2.95;;;2.10;99.90;;;;;;4891523;29;20037;-84
2021/12/10 02:53:03;;;;;;;6.47;2.45;;;2.10;99.90;;;;;;4891630;29;20041;-84
2021/12/10 02:55:30;;;;;;;10.00;3.65;;;2.10;99.90;;;;;;4891480;29;20049;-84
2021/12/10 02:57:59;;;;;;;5.85;2.20;;;2.10;99.90;;;;;;4891202;29;20502;-84
2021/12/10 03:00:29;;;;;;;6.78;2.92;;;2.10;99.90;;;;;;4891584;29;20585;-84
2021/12/10 03:02:55;;;;;;;6.43;2.63;;;2.00;99.90;;;;;;4891412;29;20037;-85
2021/12/10 03:05:21;;;;;;;7.80;2.15;;;2.00;99.90;;;;;;4891495;29;20045;-84
2021/12/10 03:07:47;;;;;;;6.57;2.72;;;2.00;99.90;;;;;;4935162;28;20066;-84
2021/12/10 03:10:17;;;;;;;6.70;2.92;;;2.10;99.90;;;;;;4949142;29;20400;-84
2021/12/10 03:12:43;;;;;;;7.47;2.92;;;2.10;99.90;;;;;;4949083;29;20043;-84
2021/12/10 03:15:11;;;;;;;11.52;3.00;;;2.10;99.90;;;;;;4948885;29;20099;-84
2021/12/10 03:17:37;;;;;;;5.43;2.47;;;2.00;99.90;;;;;;4948786;29;20090;-84
2021/12/10 03:20:07;;;;;;;6.78;2.58;;;2.10;99.90;;;;;;4948826;29;20065;-84
2021/12/10 03:22:33;;;;;;;4.18;1.70;;;2.00;99.90;;;;;;4948873;29;20032;-84
2021/12/10 03:24:59;;;;;;;6.50;2.78;;;2.10;99.90;;;;;;4948930;29;20046;-84
2021/12/10 03:27:25;;;;;;;8.82;2.67;;;2.10;99.90;;;;;;4948973;29;20059;-84
2021/12/10 03:29:52;;;;;;;5.57;2.85;;;2.20;99.90;;;;;;4948634;29;20052;-84
2021/12/10 03:32:24;;;;;;;6.88;3.22;;;2.20;99.90;;;;;;4964657;29;20059;-84
2021/12/10 03:34:50;;;;;;;6.82;3.15;;;2.20;99.90;;;;;;4980937;28;20036;-83
2021/12/10 03:37:18;;;;;;;6.88;2.38;;;2.20;99.90;;;;;;4948542;29;20069;-84
2021/12/10 03:39:46;;;;;;;6.25;2.60;;;2.20;99.90;;;;;;4947844;29;20540;-84
2021/12/10 03:42:12;;;;;;;5.15;2.42;;;2.20;99.90;;;;;;4948566;29;20036;-84
2021/12/10 03:44:38;;;;;;;4.38;2.33;;;2.30;99.90;;;;;;4948430;29;20039;-84
2021/12/10 03:47:06;;;;;;;4.75;1.75;;;2.20;99.90;;;;;;4948420;29;20100;-84
2021/12/10 03:49:33;;;;;;;5.55;2.03;;;2.30;99.90;;;;;;4948425;29;20067;-84
2021/12/10 03:51:59;;;;;;;6.90;2.17;;;2.20;99.90;;;;;;4948312;29;20043;-85
2021/12/10 03:54:25;;;;;;;6.78;2.00;;;2.20;99.90;;;;;;4932679;29;20035;-84
2021/12/10 03:56:51;;;;;;;4.35;1.77;;;2.20;99.90;;;;;;4948354;29;20031;-84
2021/12/10 03:59:19;;;;;;;4.50;1.80;;;2.30;99.90;;;;;;4932049;29;20059;-84
2021/12/10 04:01:48;;;;;;;7.72;2.17;;;2.30;99.90;;;;;;4948330;29;20103;-85
2021/12/10 04:04:22;;;;;;;6.95;1.98;;;2.40;99.90;;;;;;4932265;29;20036;-85
2021/12/10 04:06:48;;;;;;;6.90;1.67;;;2.30;99.90;;;;;;4948201;29;20117;-85
2021/12/10 04:09:14;;;;;;;4.82;1.48;;;2.30;99.90;;;;;;4964127;29;20061;-85
2021/12/10 04:11:41;;;;;;;6.55;2.13;;;2.30;99.90;;;;;;4964119;29;20288;-84
2021/12/10 04:14:07;;;;;;;7.63;2.58;;;2.20;99.90;;;;;;4947700;29;20122;-84
2021/12/10 04:16:33;;;;;;;5.75;2.05;;;2.30;99.90;;;;;;4964101;29;20043;-84
2021/12/10 04:19:00;;;;;;;7.65;1.63;;;2.30;99.90;;;;;;4947762;29;20044;-85
2021/12/10 04:21:28;;;;;;;10.35;2.90;;;2.30;99.90;;;;;;4947866;29;20042;-85
2021/12/10 04:23:54;;;;;;;5.45;2.03;;;2.20;99.90;;;;;;4947936;29;20034;-84
2021/12/10 04:26:24;;;;;;;7.93;2.40;;;2.20;99.90;;;;;;4947797;29;20047;-83
2021/12/10 04:28:51;;;;;;;6.68;2.38;;;2.20;99.90;;;;;;4963727;29;20028;-84
2021/12/10 04:31:16;;;;;;;8.50;2.50;;;2.20;99.90;;;;;;4947510;29;20052;-84
2021/12/10 04:33:42;;;;;;;10.18;2.55;;;2.20;99.90;;;;;;4947747;29;20102;-84
2021/12/10 04:36:08;;;;;;;6.32;1.90;;;2.20;99.90;;;;;;4947782;29;20032;-85
2021/12/10 04:38:34;;;;;;;5.97;2.35;;;2.20;99.90;;;;;;4947584;29;20043;-84
2021/12/10 04:41:03;;;;;;;8.27;2.50;;;2.20;99.90;;;;;;4948015;29;20027;-85
2021/12/10 04:43:35;;;;;;;5.75;1.83;;;2.10;99.90;;;;;;4947814;29;20447;-84
2021/12/10 04:46:01;;;;;;;8.50;2.85;;;2.10;99.90;;;;;;4931628;29;20024;-84
2021/12/10 04:48:28;;;;;;;9.90;3.10;;;2.10;99.90;;;;;;4947687;29;20488;-85
2021/12/10 04:50:55;;;;;;;10.48;2.92;;;2.20;99.90;;;;;;4933024;29;20036;-84
2021/12/10 04:53:21;;;;;;;4.85;2.00;;;2.10;99.90;;;;;;4949221;29;20036;-85
2021/12/10 04:55:49;;;;;;;8.55;2.40;;;2.10;99.90;;;;;;4933130;29;20036;-85
2021/12/10 04:58:14;;;;;;;12.90;3.10;;;2.10;99.90;;;;;;4931831;29;20048;-85
2021/12/10 05:00:44;;;;;;;7.82;2.00;;;2.10;99.90;;;;;;4947472;29;20036;-85
2021/12/10 05:03:10;;;;;;;7.10;2.33;;;2.10;99.90;;;;;;4931670;29;20043;-84
2021/12/10 05:05:37;;;;;;;4.18;1.60;;;2.10;99.90;;;;;;4948553;29;20027;-84
2021/12/10 05:08:05;;;;;;;12.75;2.53;;;2.10;99.90;;;;;;4931426;29;20036;-85
2021/12/10 05:10:32;;;;;;;7.25;2.10;;;2.20;99.90;;;;;;4931454;29;20031;-85
2021/12/10 05:12:58;;;;;;;8.73;2.45;;;2.20;99.90;;;;;;4947337;29;20036;-85
2021/12/10 05:15:27;;;;;;;10.73;2.30;;;2.20;99.90;;;;;;4931256;29;20032;-85
2021/12/10 05:17:54;;;;;;;7.65;2.15;;;2.20;99.90;;;;;;4931374;29;20070;-85
2021/12/10 05:20:32;;;;;;;6.57;1.55;;;2.20;99.90;;;;;;4931290;29;20072;-85
2021/12/10 05:22:58;;;;;;;9.15;1.88;;;2.20;99.90;;;;;;4931489;29;20126;-85
2021/12/10 05:25:26;;;;;;;7.13;1.88;;;2.20;99.90;;;;;;4931304;29;20388;-85
2021/12/10 05:27:52;;;;;;;6.32;1.15;;;2.20;99.90;;;;;;4931629;29;20031;-85
2021/12/10 05:30:22;;;;;;;7.40;1.27;;;2.10;99.90;;;;;;4930739;29;20060;-84
2021/12/10 05:32:48;;;;;;;7.15;1.67;;;2.10;99.90;;;;;;4931436;29;20028;-85
2021/12/10 05:35:15;;;;;;;4.97;1.27;;;2.10;99.90;;;;;;4962789;29;20044;-85
2021/12/10 05:37:41;;;;;;;6.03;1.55;;;2.10;99.90;;;;;;4928075;29;20028;-86
2021/12/10 05:40:12;;;;;;;6.75;1.40;;;2.10;99.90;;;;;;4933724;29;20035;-88
2021/12/10 05:42:38;;;;;;;9.73;1.88;;;2.10;99.90;;;;;;4931197;29;20063;-87
2021/12/10 05:45:04;;;;;;;5.50;1.33;;;2.10;99.90;;;;;;4931117;29;20043;-88
2021/12/10 05:47:30;;;;;;;7.75;1.55;;;2.00;99.90;;;;;;4930995;29;20031;-87
2021/12/10 05:49:56;;;;;;;9.20;1.23;;;2.00;99.90;;;;;;4930996;29;20028;-87
2021/12/10 05:52:22;;;;;;;7.97;1.23;;;1.90;99.90;;;;;;4931047;29;20035;-86
2021/12/10 05:54:50;;;;;;;7.80;1.88;;;2.00;99.90;;;;;;4962426;29;20036;-87
2021/12/10 05:57:16;;;;;;;5.97;1.20;;;2.00;99.90;;;;;;4946656;29;20496;-87
2021/12/10 05:59:42;;;;;;;5.32;1.02;;;2.00;99.90;;;;;;4946833;29;20068;-86
2021/12/10 06:02:08;;;;;;;7.32;1.20;;;2.00;99.90;;;;;;4947540;29;20031;-87
2021/12/10 06:04:34;;;;;;;6.38;1.00;;;1.90;99.90;;;;;;4950371;29;20046;-87
2021/12/10 06:07:01;;;;;;;6.38;1.25;;;1.90;99.90;;;;;;4950482;29;20063;-87
2021/12/10 06:09:27;;;;;;;7.68;1.05;;;1.80;99.90;;;;;;4934048;29;20039;-88
2021/12/10 06:11:52;;;;;;;3.03;0.80;;;1.80;99.90;;;;;;4950487;29;20083;-88
2021/12/10 06:14:18;;;;;;;3.85;0.80;;;1.80;99.90;;;;;;4950205;29;20077;-86
2021/12/10 06:16:44;;;;;;;5.95;0.90;;;1.90;99.90;;;;;;4950189;29;20042;-88
2021/12/10 06:19:10;;;;;;;6.30;0.85;;;1.90;99.90;;;;;;4949972;29;20047;-88
2021/12/10 06:21:37;;;;;;;9.38;1.13;;;1.90;99.90;;;;;;4950122;29;20074;-86
2021/12/10 06:24:04;;;;;;;4.13;0.77;;;1.80;99.90;;;;;;4949813;29;20459;-88
2021/12/10 06:26:30;;;;;;;4.68;1.38;;;1.80;99.90;;;;;;4934305;29;20067;-87
2021/12/10 06:28:55;;;;;;;6.15;0.93;;;1.80;99.90;;;;;;4934268;29;20087;-87
2021/12/10 06:31:22;;;;;;;6.28;0.68;;;1.80;99.90;;;;;;4949705;29;20115;-87
2021/12/10 06:33:49;;;;;;;5.93;0.75;;;1.80;99.90;;;;;;4933801;29;20099;-87
2021/12/10 06:36:16;;;;;;;4.10;0.70;;;1.70;99.90;;;;;;4934099;29;20127;-86
2021/12/10 06:42:19;;;;;;;6.45;0.50;;;1.70;99.90;;;;;;4873622;29;20039;-87
2021/12/10 06:44:44;;;;;;;3.95;0.70;;;1.70;99.90;;;;;;4857793;29;20582;-86
2021/12/10 06:47:10;;;;;;;6.63;1.38;;;1.80;99.90;;;;;;4857925;29;20126;-87
2021/12/10 06:49:35;;;;;;;8.73;0.90;;;1.80;99.90;;;;;;4857740;29;20037;-86
2021/12/10 06:52:03;;;;;;;4.22;0.93;;;1.80;99.90;;;;;;4857722;29;20073;-86
2021/12/10 06:54:29;;;;;;;4.50;0.50;;;1.80;99.90;;;;;;4857423;29;20030;-86
2021/12/10 06:56:59;;;;;;;4.60;0.50;;;1.80;99.90;;;;;;4857912;29;20064;-86
2021/12/10 06:59:26;;;;;;;5.80;0.60;;;1.80;99.90;;;;;;4857574;29;20128;-86
2021/12/10 07:01:53;;;;;;;2.70;0.50;;;1.80;99.90;;;;;;4857757;29;20042;-87
2021/12/10 07:04:19;;;;;;;2.78;0.55;;;1.80;99.90;;;;;;4858851;29;20074;-86
2021/12/10 07:06:46;;;;;;;4.60;0.52;;;1.80;99.90;;;;;;4842417;29;20033;-87
2021/12/10 07:09:22;;;;;;;3.85;0.73;;;1.80;99.90;;;;;;4857298;29;20037;-87
2021/12/10 07:11:50;;;;;;;2.60;0.60;;;1.80;99.90;;;;;;4842080;29;20113;-86
2021/12/10 07:14:17;;;;;;;5.50;0.60;;;1.90;99.90;;;;;;4857462;29;20037;-86
2021/12/10 07:16:44;;;;;;;4.80;0.80;;;1.90;99.90;;;;;;4857337;29;20033;-87
2021/12/10 07:19:10;;;;;;;2.15;0.70;;;1.90;99.90;;;;;;4917386;29;20139;-86
2021/12/10 07:21:36;;;;;;;2.95;0.55;;;1.80;99.90;;;;;;4930046;29;20485;-87
2021/12/10 07:24:06;;;;;;;5.55;0.63;;;1.90;99.90;;;;;;4929801;29;20040;-87
2021/12/10 07:26:33;;;;;;;3.72;0.50;;;1.90;99.90;;;;;;4929989;29;20063;-86
2021/12/10 07:28:59;;;;;;;5.10;0.70;;;1.90;99.90;;;;;;4929622;29;20059;-86
2021/12/10 07:31:26;;;;;;;9.50;0.82;;;1.90;99.90;;;;;;4947132;29;20051;-87
2021/12/10 07:33:52;;;;;;;7.80;1.17;;;1.90;99.90;;;;;;4948738;29;20397;-86
2021/12/10 07:36:17;;;;;;;4.97;0.60;;;1.90;99.90;;;;;;4947043;29;20083;-87
2021/12/10 07:38:44;;;;;;;5.20;0.50;;;2.00;99.90;;;;;;4931451;29;20075;-85
2021/12/10 07:41:09;;;;;;;6.03;0.70;;;1.90;99.90;;;;;;4929184;29;20078;-86
2021/12/10 07:43:37;;;;;;;3.47;0.60;;;2.00;99.90;;;;;;4946098;29;20504;-86
2021/12/10 07:46:04;;;;;;;4.72;0.57;;;2.00;99.90;;;;;;4948310;29;20032;-86
2021/12/10 07:48:30;;;;;;;5.25;0.68;;;2.00;99.90;;;;;;4948225;29;20041;-85
2021/12/10 07:51:00;;;;;;;2.70;0.60;;;2.00;99.90;;;;;;4948714;29;20090;-86
2021/12/10 07:53:28;;;;;;;7.10;0.98;;;2.00;99.90;;;;;;4947703;29;20404;-86
2021/12/10 07:55:56;;;;;;;5.38;0.60;;;2.00;99.90;;;;;;4947801;29;20069;-86
2021/12/10 07:58:22;;;;;;;4.97;0.63;;;2.00;99.90;;;;;;4947662;29;20408;-85
2021/12/10 08:00:48;;;;;;;3.20;0.70;;;2.10;99.90;;;;;;4931948;29;20027;-87
2021/12/10 08:03:14;;;;;;;5.88;0.80;;;2.20;99.90;;;;;;4931940;29;20063;-86
2021/12/10 08:05:41;;;;;;;5.97;0.98;;;2.20;99.90;;;;;;4947619;29;20096;-87
2021/12/10 08:08:08;;;;;;;4.93;0.93;;;2.20;99.90;;;;;;4947337;29;20042;-86
2021/12/10 08:10:36;;;;;;;6.40;1.38;;;2.20;99.90;;;;;;4947569;29;20040;-88
2021/12/10 08:13:03;;;;;;;5.15;0.60;;;2.20;99.90;;;;;;4947580;29;20122;-87
2021/12/10 08:15:29;;;;;;;3.25;0.70;;;2.30;99.90;;;;;;4931601;29;20122;-87
2021/12/10 08:17:55;;;;;;;5.63;0.90;;;2.30;99.90;;;;;;4931437;29;20091;-87
2021/12/10 08:20:23;;;;;;;5.07;0.88;;;2.40;99.90;;;;;;4947451;29;20374;-86
2021/12/10 08:22:50;;;;;;;6.00;1.10;;;2.40;99.90;;;;;;4947436;29;20035;-87
2021/12/10 08:25:19;;;;;;;4.47;0.63;;;2.50;99.90;;;;;;4947013;29;20495;-87
2021/12/10 08:27:45;;;;;;;3.08;0.80;;;2.50;99.90;;;;;;4947350;29;20039;-87
2021/12/10 08:30:13;;;;;;;4.00;0.77;;;2.60;99.90;;;;;;4946821;29;20060;-86
2021/12/10 08:32:40;;;;;;;4.10;0.90;;;2.60;99.90;;;;;;4931469;29;20043;-88
2021/12/10 08:35:09;;;;;;;4.30;0.85;;;2.60;99.90;;;;;;4947081;29;20102;-89
2021/12/10 08:37:35;;;;;;;4.30;0.85;;;2.60;99.90;;;;;;4927793;29;20059;-87
2021/12/10 08:40:01;;;;;;;5.75;0.65;;;2.60;99.90;;;;;;4928061;29;20040;-86
2021/12/10 08:42:27;;;;;;;2.90;0.60;;;2.70;99.90;;;;;;4928068;29;20032;-87
2021/12/10 08:44:53;;;;;;;4.40;1.17;;;2.70;99.90;;;;;;4927806;29;20040;-88
2021/12/10 08:47:19;;;;;;;4.10;1.02;;;2.60;99.90;;;;;;4927910;29;20035;-88
2021/12/10 08:49:46;;;;;;;8.02;0.90;;;2.70;99.90;;;;;;4911943;29;20048;-88
2021/12/10 08:52:14;;;;;;;5.75;0.73;;;2.70;99.90;;;;;;4927477;29;20046;-87
2021/12/10 08:54:42;;;;;;;5.65;0.88;;;2.70;99.90;;;;;;4909873;29;20119;-85
2021/12/10 08:57:08;;;;;;;4.35;0.90;;;2.70;99.90;;;;;;4947678;29;20032;-85
2021/12/10 08:59:36;;;;;;;5.82;0.88;;;2.80;99.90;;;;;;4945631;29;20043;-85
2021/12/10 09:02:03;;;;;;;4.35;0.70;;;2.80;99.90;;;;;;4929487;29;20091;-85
2021/12/10 09:04:31;;;;;;;6.90;0.80;;;2.90;99.90;;;;;;4929741;29;20095;-84
2021/12/10 09:07:06;;;;;;;4.40;0.60;;;2.90;99.90;;;;;;4930762;29;20099;-84
2021/12/10 09:09:34;;;;;;;4.10;0.60;;;2.90;99.90;;;;;;4929731;29;20020;-84
2021/12/10 09:12:03;;;;;;;3.10;0.88;;;2.90;99.90;;;;;;4929422;29;20043;-84
2021/12/10 09:14:37;;;;;;;7.57;1.93;;;2.90;99.90;;;;;;4928609;29;20087;-85
2021/12/10 09:17:03;;;;;;;5.40;0.77;;;2.90;99.90;;;;;;4931274;29;20101;-85
2021/12/10 09:19:29;;;;;;;5.30;0.77;;;3.00;99.90;;;;;;4928933;29;20054;-87
2021/12/10 09:21:56;;;;;;;3.60;0.70;;;3.00;99.90;;;;;;4945361;29;20032;-87
2021/12/10 09:24:23;;;;;;;5.63;0.82;;;3.00;99.90;;;;;;4929370;29;20078;-85
2021/12/10 09:26:55;;;;;;;3.83;0.55;;;3.10;99.90;;;;;;4946920;29;20040;-86
2021/12/10 09:29:21;;;;;;;6.93;1.55;;;3.10;99.90;;;;;;4962317;28;20043;-86
2021/12/10 09:32:23;;;;;;;3.58;0.60;;;3.20;99.90;;;;;;5103975;27;20848;-83
2021/12/10 09:34:49;;;;;;;2.88;0.50;;;3.30;99.90;;;;;;5079768;28;20408;-84
2021/12/10 09:37:16;;;;;;;3.00;0.60;;;3.30;99.90;;;;;;5079288;28;20032;-85
2021/12/10 09:39:43;;;;;;;7.15;0.60;;;3.40;99.90;;;;;;5076406;28;20035;-84
2021/12/10 09:42:09;;;;;;;2.92;0.50;;;3.40;99.90;;;;;;5075435;28;20047;-83
2021/12/10 09:44:36;;;;;;;4.18;0.50;;;3.50;99.90;;;;;;5095841;28;20032;-82
2021/12/10 09:47:04;;;;;;;2.30;0.50;;;3.40;99.90;;;;;;5080530;28;20035;-84
2021/12/10 09:49:30;;;;;;;3.05;0.90;;;3.40;99.90;;;;;;5096914;28;20032;-83
2021/12/10 09:51:59;;;;;;;3.10;0.50;;;3.40;99.90;;;;;;5081385;28;20043;-82
2021/12/10 09:54:30;;;;;;;4.15;0.55;;;3.50;99.90;;;;;;5068142;28;20075;-83
2021/12/10 09:57:10;;;;;;;4.85;0.60;;;3.50;99.90;;;;;;5093550;28;20046;-82
2021/12/10 09:59:40;;;;;;;3.42;0.50;;;3.50;99.90;;;;;;5078845;28;20059;-87
2021/12/10 10:02:07;;;;;;;4.07;0.60;;;3.60;99.90;;;;;;5083872;28;20060;-83
2021/12/10 10:04:35;;;;;;;4.13;0.52;;;3.60;99.90;;;;;;5083923;28;20461;-86
2021/12/10 10:07:10;;;;;;;4.10;0.60;;;3.60;99.90;;;;;;5083929;28;20032;-85
2021/12/10 10:09:36;;;;;;;5.05;0.50;;;3.70;99.90;;;;;;5083942;28;20047;-87
2021/12/10 10:12:10;;;;;;;1.90;0.40;;;3.70;99.90;;;;;;5084084;28;20047;-88
2021/12/10 10:14:37;;;;;;;4.15;0.65;;;3.70;99.90;;;;;;5100737;28;20028;-89
2021/12/10 10:17:05;;;;;;;4.30;0.50;;;3.70;99.90;;;;;;5084077;28;20032;-85
2021/12/10 10:19:31;;;;;;;5.55;0.60;;;3.70;99.90;;;;;;5083625;28;20056;-89
2021/12/10 10:21:58;;;;;;;5.47;0.47;;;3.80;99.90;;;;;;5100805;28;20036;-86
2021/12/10 10:24:27;;;;;;;5.15;0.60;;;3.80;99.90;;;;;;5083490;28;20032;-84
2021/12/10 10:27:13;;;;;;;4.63;0.52;;;3.80;99.90;;;;;;5083775;28;20058;-84
2021/12/10 10:29:42;;;;;;;2.33;0.40;;;3.90;99.90;;;;;;5100587;28;20028;-85
2021/12/10 10:32:13;;;;;;;3.07;0.40;;;3.90;99.90;;;;;;5083360;28;20131;-90
2021/12/10 10:34:43;;;;;;;;;;;4.00;99.90;;;;;;5100908;28;20365;-87
2021/12/10 10:37:09;;;;;;;;;;;4.00;99.90;;;;;;5084022;28;19915;-84
2021/12/10 10:39:36;;;;;;;1.92;0.32;;;4.10;99.90;;;;;;5063351;28;19908;-85
2021/12/10 10:42:07;;;;;;;2.22;0.32;;;4.10;99.90;;;;;;5059129;28;20392;-86
2021/12/10 10:44:33;;;;;;;2.78;0.30;;;4.20;99.90;;;;;;5054554;28;20028;-85
2021/12/10 10:47:00;;;;;;;6.53;0.43;;;4.20;99.90;;;;;;5069588;28;20054;-84
2021/12/10 10:49:44;;;;;;;5.05;0.43;;;4.20;99.90;;;;;;5086831;28;20039;-85
2021/12/10 10:52:18;;;;;;;3.75;0.57;;;4.20;99.90;;;;;;5087617;28;20044;-83
2021/12/10 10:54:45;;;;;;;2.25;0.50;;;4.30;99.90;;;;;;5069778;28;20047;-84
2021/12/10 10:57:15;;;;;;;3.67;0.50;;;4.40;99.90;;;;;;5086803;28;20032;-84
2021/12/10 10:59:41;;;;;;;4.07;0.52;;;4.40;99.90;;;;;;5069600;28;20032;-84
2021/12/10 11:02:10;;;;;;;1.90;0.40;;;4.40;99.90;;;;;;5069972;28;20043;-84
2021/12/10 11:04:40;;;;;;;2.33;0.47;;;4.50;99.90;;;;;;5086441;28;20036;-84
2021/12/10 11:07:20;;;;;;;6.10;0.60;;;4.50;99.90;;;;;;5069691;28;20037;-86
2021/12/10 11:09:45;;;;;;;3.85;0.40;;;4.50;99.90;;;;;;5069757;28;20051;-84
2021/12/10 11:12:20;;;;;;;2.38;0.45;;;4.60;99.90;;;;;;5086377;28;20040;-84
2021/12/10 11:14:50;;;;;;;6.40;0.47;;;4.70;99.90;;;;;;5069464;28;20119;-84
2021/12/10 11:17:30;;;;;;;3.30;0.50;;;4.70;99.90;;;;;;5086423;28;20084;-85
2021/12/10 11:20:18;;;;;;;2.80;0.65;;;4.80;99.90;;;;;;5086097;28;20059;-83
2021/12/10 11:22:47;;;;;;;3.65;0.47;;;4.70;99.90;;;;;;5069552;28;20032;-84
2021/12/10 11:25:18;;;;;;;3.35;0.40;;;4.80;99.90;;;;;;5069223;28;20029;-85
2021/12/10 11:27:45;;;;;;;3.10;0.50;;;4.90;99.90;;;;;;5086191;28;20080;-86
2021/12/10 11:31:40;;;;;;;2.15;0.40;;;4.90;99.90;;;;;;5069151;28;20070;-84
2021/12/10 11:33:51;;;;;;;2.55;0.40;;;4.80;99.90;;;;;;5073160;28;20044;-85
2021/12/10 11:36:23;;;;;;;3.70;0.30;;;4.90;99.90;;;;;;5066568;28;20077;-86
2021/12/10 11:38:54;;;;;;;2.25;0.30;;;4.90;99.90;;;;;;5055464;28;20037;-86
2021/12/10 11:41:26;;;;;;;4.97;0.40;;;4.90;99.90;;;;;;5048661;28;20112;-85
2021/12/10 11:44:18;;;;;;;2.70;0.30;;;4.90;99.90;;;;;;5048954;28;20021;-85
2021/12/10 11:46:51;;;;;;;2.75;0.40;;;4.90;99.90;;;;;;5048853;28;20040;-83
2021/12/10 11:49:23;;;;;;;3.95;0.30;;;5.00;99.90;;;;;;5048763;28;20025;-85
2021/12/10 11:52:10;;;;;;;3.08;0.50;;;4.90;99.90;;;;;;5064987;28;20052;-86
2021/12/10 11:54:52;;;;;;;5.30;0.45;;;4.90;99.90;;;;;;5047277;28;20091;-85
2021/12/10 11:57:26;;;;;;;4.18;0.40;;;4.90;99.90;;;;;;5048199;28;20063;-87
2021/12/10 11:59:53;;;;;;;2.03;0.30;;;5.00;99.90;;;;;;5065009;28;20029;-86
2021/12/10 12:02:55;;;;;;;3.47;0.40;;;5.00;99.90;;;;;;5065200;28;20104;-85
2021/12/10 12:05:34;;;;;;;5.78;0.40;;;4.90;99.90;;;;;;5059346;28;20132;-86
2021/12/10 12:08:06;;;;;;;4.28;0.73;;;4.90;99.90;;;;;;5065125;28;20033;-83
2021/12/10 12:10:38;;;;;;;2.50;0.40;;;4.90;99.90;;;;;;5048069;28;20044;-84
2021/12/10 12:13:11;;;;;;;2.55;0.50;;;4.90;99.90;;;;;;5048172;28;20107;-82
2021/12/10 12:15:50;;;;;;;3.35;0.50;;;4.90;99.90;;;;;;5048051;28;20100;-83
2021/12/10 12:18:23;;;;;;;2.30;0.50;;;4.90;99.90;;;;;;5064501;28;20029;-84
2021/12/10 12:26:37;;;;;;;4.47;0.40;;;4.90;99.90;;;;;;5064545;28;20055;-83
2021/12/10 12:29:13;;;;;;;2.10;0.40;;;5.00;99.90;;;;;;5047663;28;20028;-83
2021/12/10 12:31:46;;;;;;;2.67;0.40;;;5.00;99.90;;;;;;5047515;28;20044;-82
2021/12/10 12:34:17;;;;;;;3.35;0.43;;;5.00;99.90;;;;;;5047683;28;20029;-82
2021/12/10 12:36:57;;;;;;;3.38;0.40;;;5.00;99.90;;;;;;5047833;28;20036;-83
2021/12/10 12:39:32;;;;;;;3.45;0.38;;;4.90;99.90;;;;;;5082837;28;20043;-82
2021/12/10 12:42:01;;;;;;;1.73;0.30;;;4.90;99.90;;;;;;5067436;28;20046;-83
2021/12/10 12:44:39;;;;;;;5.10;0.40;;;5.00;99.90;;;;;;5067552;28;20029;-83
2021/12/10 12:47:12;;;;;;;1.88;0.40;;;4.90;99.90;;;;;;5062240;28;20039;-84
2021/12/10 12:49:38;;;;;;;2.33;0.43;;;4.90;99.90;;;;;;5073633;28;20105;-83
2021/12/10 12:52:10;;;;;;;3.58;0.40;;;4.90;99.90;;;;;;5066802;28;20036;-84
2021/12/10 12:54:41;;;;;;;1.90;0.38;;;4.90;99.90;;;;;;5054948;28;20092;-83
2021/12/10 12:57:10;;;;;;;1.83;0.40;;;4.90;99.90;;;;;;5047356;28;20078;-83
2021/12/10 12:59:36;;;;;;;1.20;0.28;;;4.90;99.90;;;;;;5064728;28;20083;-82
2021/12/10 13:02:08;;;;;;;2.38;0.30;;;4.90;99.90;;;;;;5063515;28;20370;-83
2021/12/10 13:04:39;;;;;;;3.30;0.40;;;4.90;99.90;;;;;;5065493;28;20036;-83
2021/12/10 13:07:12;;;;;;;;;;;4.90;99.90;;;;;;5063853;28;20350;-84
2021/12/10 13:09:46;;;;;;;3.20;0.40;;;4.90;99.90;;;;;;5054909;28;19999;-84
2021/12/10 13:12:45;;;;;;;3.05;0.30;;;4.90;99.90;;;;;;5081219;28;20140;-84
2021/12/10 13:15:20;;;;;;;1.92;0.30;;;4.90;99.90;;;;;;5074799;28;20025;-84
2021/12/10 13:17:49;;;;;;;2.92;0.40;;;4.90;99.90;;;;;;5046924;28;20031;-83
2021/12/10 13:20:22;;;;;;;2.85;0.43;;;5.00;99.90;;;;;;5062525;28;20033;-84
2021/12/10 13:22:51;;;;;;;5.30;0.80;;;5.00;99.90;;;;;;5046320;28;20096;-84
2021/12/10 13:25:20;;;;;;;3.38;0.43;;;5.00;99.90;;;;;;5063286;28;20029;-84
2021/12/10 13:27:46;;;;;;;3.03;0.50;;;5.00;99.90;;;;;;5080510;28;20033;-84
2021/12/10 13:30:22;;;;;;;2.00;0.40;;;5.00;99.90;;;;;;5063343;28;20043;-85